Time;durP1;ratioP1;P1;durP2;ratioP2;P2;SDS_P1;SDS_P2;PMS_P1;PMS_P2;Temp;Humidity;BMP_temperature;BMP_pressure;BME280_temperature;BME280_humidity;BME280_pressure;Samples;Min_cycle;Max_cycle;Signal;HPM_P1;HPM_P2
2022/11/24 00:01:20;;;;;;;20.17;7.70;;;7.00;99.90;;;;;;6219212;23;20027;-93
2022/11/24 00:07:28;;;;;;;16.55;8.63;;;6.90;99.90;;;;;;6190210;23;20465;-94
2022/11/24 00:09:57;;;;;;;17.55;8.25;;;6.90;99.90;;;;;;6165963;23;20051;-94
2022/11/24 00:12:28;;;;;;;16.58;8.10;;;7.50;99.90;;;;;;6164635;23;20016;-94
2022/11/24 00:15:13;;;;;;;16.52;8.30;;;6.90;99.90;;;;;;6139155;23;20016;-94
2022/11/24 00:17:40;;;;;;;18.58;8.25;;;7.00;99.90;;;;;;6139745;23;20048;-94
2022/11/24 00:20:14;;;;;;;17.95;8.23;;;6.90;99.90;;;;;;6138977;23;20411;-92
2022/11/24 00:22:43;;;;;;;17.08;8.27;;;6.90;99.90;;;;;;6140886;23;20416;-94
2022/11/24 00:25:10;;;;;;;16.88;8.30;;;6.90;99.90;;;;;;6165433;23;20020;-94
2022/11/24 00:27:56;;;;;;;18.33;9.13;;;6.90;99.90;;;;;;6164749;23;20450;-94
2022/11/24 00:30:24;;;;;;;21.50;8.63;;;6.90;99.90;;;;;;6139906;23;20163;-92
2022/11/24 00:33:08;;;;;;;16.25;8.27;;;6.80;99.90;;;;;;6141087;23;20016;-92
2022/11/24 00:36:11;;;;;;;17.38;6.90;;;6.80;99.90;;;;;;6141020;23;20474;-92
2022/11/24 00:38:37;;;;;;;16.75;7.65;;;6.70;99.90;;;;;;6167041;23;20023;-93
2022/11/24 00:41:08;;;;;;;19.52;7.40;;;6.80;99.90;;;;;;6142536;23;20019;-94
2022/11/24 00:44:11;;;;;;;15.13;7.00;;;6.80;99.90;;;;;;6143602;23;20454;-93
2022/11/24 00:46:37;;;;;;;15.60;7.70;;;6.70;99.90;;;;;;6167142;23;20629;-94
2022/11/24 00:49:41;;;;;;;17.08;7.03;;;6.70;99.90;;;;;;6167587;23;20016;-94
2022/11/24 00:52:07;;;;;;;15.55;7.15;;;6.70;99.90;;;;;;6167068;23;20333;-94
2022/11/24 00:54:53;;;;;;;16.92;6.55;;;6.70;99.90;;;;;;6169148;23;20012;-95
2022/11/24 00:57:24;;;;;;;15.57;7.10;;;6.70;99.90;;;;;;6188669;22;20085;-94
2022/11/24 01:00:09;;;;;;;18.33;6.75;;;6.70;99.90;;;;;;6163455;22;20068;-93
2022/11/24 01:02:55;;;;;;;16.52;6.80;;;6.70;99.90;;;;;;6190288;22;20055;-94
2022/11/24 01:05:21;;;;;;;19.02;6.80;;;6.70;99.90;;;;;;6209407;22;20007;-92
2022/11/24 01:07:48;;;;;;;18.00;6.22;;;6.70;99.90;;;;;;6222795;22;20008;-92
2022/11/24 01:10:38;;;;;;;15.25;6.68;;;6.70;99.90;;;;;;6223675;22;20008;-92
2022/11/24 01:17:03;;;;;;;13.98;5.60;;;6.80;99.90;;;;;;6257888;23;20097;-95
2022/11/24 01:19:29;;;;;;;17.92;6.60;;;6.70;99.90;;;;;;6225820;23;20127;-94
2022/11/24 01:25:38;;;;;;;15.00;6.15;;;6.00;99.90;;;;;;6247382;23;20024;-94
2022/11/24 01:28:42;;;;;;;19.85;6.68;;;6.80;99.90;;;;;;6246566;23;20079;-95
2022/11/24 01:31:09;;;;;;;21.40;6.82;;;6.60;99.90;;;;;;6247171;23;20020;-94
2022/11/24 01:33:56;;;;;;;17.20;6.15;;;6.60;99.90;;;;;;6221533;23;20067;-95
2022/11/24 01:36:25;;;;;;;15.43;5.20;;;6.60;99.90;;;;;;6246939;23;20023;-93
2022/11/24 01:39:30;;;;;;;18.35;5.88;;;6.60;99.90;;;;;;6171936;23;20023;-93
2022/11/24 01:42:15;;;;;;;14.35;5.63;;;6.60;99.90;;;;;;6246459;23;20065;-93
2022/11/24 01:44:42;;;;;;;20.95;5.40;;;6.60;99.90;;;;;;6221719;23;20020;-94
2022/11/24 01:47:46;;;;;;;16.65;5.28;;;6.60;99.90;;;;;;6218119;23;20446;-95
2022/11/24 01:50:18;;;;;;;15.45;5.22;;;6.50;99.90;;;;;;6245569;23;20055;-93
2022/11/24 01:56:18;;;;;;;16.45;5.65;;;6.50;99.90;;;;;;6247155;23;20026;-93
2022/11/24 01:58:46;;;;;;;17.10;5.15;;;6.80;99.90;;;;;;6222610;23;20485;-94
2022/11/24 02:01:13;;;;;;;15.73;4.88;;;6.40;99.90;;;;;;6195325;23;20312;-93
2022/11/24 02:07:03;;;;;;;15.75;4.53;;;6.40;99.90;;;;;;6242121;23;20095;-93
2022/11/24 02:10:09;;;;;;;16.58;4.75;;;6.40;99.90;;;;;;6219211;23;20077;-94
2022/11/24 02:12:45;;;;;;;15.98;4.88;;;6.50;99.90;;;;;;6246643;23;20023;-94
2022/11/24 02:15:16;;;;;;;14.60;4.95;;;6.50;99.90;;;;;;6221544;23;20027;-95
2022/11/24 02:18:03;;;;;;;16.50;5.47;;;6.50;99.90;;;;;;6220740;23;20099;-94
2022/11/24 02:20:34;;;;;;;18.40;5.80;;;6.60;99.90;;;;;;6221902;23;20746;-95
2022/11/24 02:26:45;;;;;;;18.20;4.70;;;6.70;99.90;;;;;;6246738;23;20507;-93
2022/11/24 02:29:16;;;;;;;21.83;4.40;;;6.70;99.90;;;;;;6220817;23;20020;-94
2022/11/24 02:31:51;;;;;;;14.88;4.15;;;6.70;99.90;;;;;;6219098;23;20095;-94
2022/11/24 02:34:20;;;;;;;15.15;4.28;;;6.70;99.90;;;;;;6219408;23;20099;-94
2022/11/24 02:37:04;;;;;;;16.33;4.70;;;6.80;99.90;;;;;;6194331;23;20023;-94
2022/11/24 02:39:33;;;;;;;18.58;5.03;;;6.80;99.90;;;;;;6221309;23;20026;-94
2022/11/24 02:45:08;;;;;;;15.40;3.83;;;6.90;99.90;;;;;;6246953;23;20058;-95
2022/11/24 02:47:39;;;;;;;17.17;4.10;;;6.80;99.90;;;;;;6221079;23;20107;-95
2022/11/24 02:50:08;;;;;;;17.63;4.22;;;6.80;99.90;;;;;;6209601;23;20086;-95
2022/11/24 02:52:36;;;;;;;15.95;3.72;;;6.80;99.90;;;;;;6224404;23;20022;-94
2022/11/24 02:55:06;;;;;;;15.50;3.97;;;6.70;99.90;;;;;;6195985;23;20435;-94
2022/11/24 02:57:32;;;;;;;17.05;3.80;;;6.70;99.90;;;;;;6220215;23;20055;-95
2022/11/24 03:00:14;;;;;;;19.63;3.75;;;6.70;99.90;;;;;;6220096;23;20020;-93
2022/11/24 03:03:03;;;;;;;20.65;4.20;;;6.60;99.90;;;;;;6196123;23;20020;-94
2022/11/24 03:09:41;;;;;;;15.10;3.38;;;7.20;99.90;;;;;;6241073;22;19922;-93
2022/11/24 03:12:12;;;;;;;13.02;3.17;;;6.60;99.90;;;;;;6219524;23;20126;-93
2022/11/24 03:14:39;;;;;;;16.77;3.80;;;6.60;99.90;;;;;;6195761;23;20091;-94
2022/11/24 03:17:24;;;;;;;14.07;3.30;;;6.70;99.90;;;;;;6220086;23;20035;-93
2022/11/24 03:19:51;;;;;;;18.30;3.60;;;6.60;99.90;;;;;;6220060;23;20019;-93
2022/11/24 03:22:21;;;;;;;17.23;3.45;;;6.70;99.90;;;;;;6194612;23;20023;-94
2022/11/24 03:24:47;;;;;;;13.00;3.30;;;6.70;99.90;;;;;;6220431;23;20114;-94
2022/11/24 03:27:13;;;;;;;14.10;3.53;;;6.70;99.90;;;;;;6220085;23;20066;-93
2022/11/24 03:29:39;;;;;;;18.15;4.00;;;6.80;99.90;;;;;;6219577;23;20449;-95
2022/11/24 03:32:05;;;;;;;17.08;3.10;;;6.80;99.90;;;;;;6229229;23;20046;-94
2022/11/24 03:34:50;;;;;;;14.38;3.58;;;6.70;99.90;;;;;;6206646;23;20091;-94
2022/11/24 03:37:34;;;;;;;15.63;3.53;;;6.80;99.90;;;;;;6220215;23;20016;-94
2022/11/24 03:40:10;;;;;;;14.02;3.42;;;6.70;99.90;;;;;;6220183;23;20039;-94
2022/11/24 03:42:57;;;;;;;10.43;3.67;;;6.80;99.90;;;;;;6220131;23;20023;-95
2022/11/24 03:45:47;;;;;;;21.77;4.35;;;6.80;99.90;;;;;;6220607;23;20362;-94
2022/11/24 03:48:19;;;;;;;17.27;3.08;;;6.70;99.90;;;;;;6219823;23;20095;-95
2022/11/24 03:51:24;;;;;;;11.85;3.35;;;6.40;99.90;;;;;;6219736;23;20012;-94
2022/11/24 03:54:27;;;;;;;12.88;3.70;;;6.90;99.90;;;;;;6219212;23;20322;-95
2022/11/24 04:00:18;;;;;;;14.30;3.00;;;6.00;99.90;;;;;;6245164;23;20316;-94
2022/11/24 04:03:03;;;;;;;13.70;3.17;;;6.80;99.90;;;;;;6220664;23;20012;-94
2022/11/24 04:05:32;;;;;;;14.02;3.08;;;6.90;99.90;;;;;;6225322;23;20020;-94
2022/11/24 04:08:02;;;;;;;15.90;2.78;;;6.90;99.90;;;;;;6231379;23;20016;-95
2022/11/24 04:10:35;;;;;;;14.38;3.65;;;6.90;99.90;;;;;;6218605;22;20012;-92
2022/11/24 04:13:06;;;;;;;10.48;3.17;;;6.90;99.90;;;;;;6246944;22;20032;-91
2022/11/24 04:15:39;;;;;;;10.98;3.35;;;6.90;99.90;;;;;;6223609;22;20015;-94
2022/11/24 04:18:24;;;;;;;13.43;2.85;;;6.90;99.90;;;;;;6247383;23;20020;-94
2022/11/24 04:21:15;;;;;;;17.98;2.70;;;6.90;99.90;;;;;;6208598;23;20020;-93
2022/11/24 04:27:23;;;;;;;10.52;3.10;;;6.80;99.90;;;;;;6249812;23;20023;-94
2022/11/24 04:29:50;;;;;;;12.65;3.13;;;6.70;99.90;;;;;;6222125;23;20016;-95
2022/11/24 04:33:10;;;;;;;17.88;3.20;;;6.70;99.90;;;;;;6193479;23;20109;-95
2022/11/24 04:35:38;;;;;;;16.75;2.65;;;6.60;99.90;;;;;;6246653;23;20020;-94
2022/11/24 04:41:46;;;;;;;12.98;2.88;;;6.60;99.90;;;;;;6247290;23;20031;-94
2022/11/24 04:44:12;;;;;;;15.30;2.78;;;6.30;99.90;;;;;;6219781;23;20023;-94
2022/11/24 04:46:38;;;;;;;14.65;3.35;;;6.60;99.90;;;;;;6220795;23;20016;-93
2022/11/24 04:49:05;;;;;;;15.77;3.10;;;6.50;99.90;;;;;;6195729;23;20016;-94
2022/11/24 04:51:33;;;;;;;13.75;2.47;;;6.50;99.90;;;;;;6221343;23;20020;-93
2022/11/24 04:53:59;;;;;;;10.57;2.42;;;6.50;99.90;;;;;;6170950;23;20019;-92
2022/11/24 05:00:21;;;;;;;13.82;2.92;;;6.30;99.90;;;;;;6247270;23;20469;-93
2022/11/24 05:02:48;;;;;;;9.37;2.80;;;6.20;99.90;;;;;;6221306;23;20055;-93
2022/11/24 05:05:20;;;;;;;;;;;6.30;99.90;;;;;;6246299;23;20059;-94
2022/11/24 05:07:46;;;;;;;14.20;2.67;;;6.30;99.90;;;;;;6193506;23;19916;-93
2022/11/24 05:12:59;;;;;;;17.33;2.55;;;6.30;99.90;;;;;;6202436;23;20074;-93
2022/11/24 05:15:28;;;;;;;14.57;2.88;;;6.30;99.90;;;;;;6219539;23;20022;-93
2022/11/24 05:21:53;;;;;;;13.70;2.65;;;6.20;99.90;;;;;;6245774;23;20578;-93
2022/11/24 05:24:19;;;;;;;8.25;2.95;;;6.20;99.90;;;;;;6220156;23;20099;-94
2022/11/24 05:26:49;;;;;;;11.25;2.45;;;6.20;99.90;;;;;;6219365;23;20051;-95
2022/11/24 05:29:35;;;;;;;12.30;3.00;;;6.20;99.90;;;;;;6195871;23;20028;-94
2022/11/24 05:32:21;;;;;;;13.13;2.45;;;6.20;99.90;;;;;;6219393;23;20016;-95
2022/11/24 05:34:49;;;;;;;10.50;2.05;;;6.10;99.90;;;;;;6194536;23;20308;-94
2022/11/24 05:37:17;;;;;;;13.40;2.75;;;6.10;99.90;;;;;;6219050;23;20530;-94
2022/11/24 05:39:44;;;;;;;11.60;2.55;;;6.10;99.90;;;;;;6219992;23;20312;-94
2022/11/24 05:42:41;;;;;;;10.13;2.45;;;5.30;99.90;;;;;;6219521;23;20513;-94
2022/11/24 05:45:52;;;;;;;17.35;3.35;;;6.10;99.90;;;;;;6220956;23;20031;-94
2022/11/24 05:48:19;;;;;;;16.48;3.00;;;5.30;99.90;;;;;;6244043;23;20484;-95
2022/11/24 05:51:11;;;;;;;11.30;2.90;;;6.10;99.90;;;;;;6219648;23;20115;-93
2022/11/24 05:57:58;;;;;;;14.68;2.53;;;5.60;99.90;;;;;;6245561;23;20620;-95
2022/11/24 06:11:21;;;;;;;10.55;2.67;;;6.10;99.90;;;;;;6230274;22;20031;-94
2022/11/24 06:14:03;;;;;;;13.98;2.35;;;5.90;99.90;;;;;;6098819;23;20022;-95
2022/11/24 06:20:53;;;;;;;;;;;;;;;;;;;;;
2022/11/24 07:09:01;;;;;;;;;;;;;;;;;;;;;
2022/11/24 12:09:20;;;;;;;6.68;1.92;;;10.10;99.90;;;;;;6199014;22;20074;-95
2022/11/24 13:21:45;;;;;;;;;;;;;;;;;;;;;
2022/11/24 13:25:01;;;;;;;;;;;;;;;;;;;;;
2022/11/24 13:28:14;;;;;;;7.25;3.03;;;10.60;99.90;;;;;;6214143;23;20059;-93
2022/11/24 13:35:32;;;;;;;;;;;;;;;;;;;;;
2022/11/24 14:13:27;;;;;;;;;;;;;;;;;;;;;
2022/11/24 14:16:14;;;;;;;;;;;;;;;;;;;;;
2022/11/24 14:22:48;;;;;;;;;;;;;;;;;;;;;
2022/11/24 14:30:57;;;;;;;;;;;;;;;;;;;;;
2022/11/24 14:39:07;;;;;;;;;;;;;;;;;;;;;
2022/11/24 14:55:36;;;;;;;;;;;;;;;;;;;;;
2022/11/24 15:01:58;;;;;;;;;;;;;;;;;;;;;
2022/11/24 15:09:11;;;;;;;;;;;;;;;;;;;;;
2022/11/24 15:12:25;;;;;;;;;;;;;;;;;;;;;
2022/11/24 15:15:03;;;;;;;10.15;2.15;;;8.40;99.90;;;;;;6198232;23;20064;-93
2022/11/24 15:17:34;;;;;;;8.55;1.90;;;8.80;99.90;;;;;;6179785;23;20024;-94
2022/11/24 15:20:41;;;;;;;9.75;2.22;;;8.80;99.90;;;;;;6184859;23;20025;-94
2022/11/24 15:27:35;;;;;;;;;;;;;;;;;;;;;
2022/11/24 15:30:33;;;;;;;;;;;;;;;;;;;;;
2022/11/24 15:40:21;;;;;;;13.23;2.88;;;8.40;99.90;;;;;;6208176;22;20474;-93
2022/11/24 15:43:17;;;;;;;11.75;1.85;;;8.30;99.90;;;;;;6139078;23;20037;-94
2022/11/24 15:46:04;;;;;;;11.10;2.17;;;7.90;99.90;;;;;;6164132;23;20023;-93
2022/11/24 16:02:48;;;;;;;11.95;2.50;;;8.00;99.90;;;;;;6214594;23;20015;-94
2022/11/24 16:13:16;;;;;;;9.03;2.30;;;7.70;99.90;;;;;;6211267;22;20347;-94
2022/11/24 16:16:21;;;;;;;11.75;2.65;;;7.70;99.90;;;;;;6188818;23;20025;-95
2022/11/24 16:19:26;;;;;;;7.03;2.08;;;7.70;99.90;;;;;;6189300;23;20028;-94
2022/11/24 16:21:56;;;;;;;14.10;3.65;;;7.60;99.90;;;;;;6189098;23;20020;-94
2022/11/24 16:24:27;;;;;;;6.97;2.67;;;7.60;99.90;;;;;;6163248;23;20300;-94
2022/11/24 16:27:05;;;;;;;14.50;3.03;;;7.60;99.90;;;;;;6164615;23;20023;-94
2022/11/24 17:25:30;;;;;;;7.97;2.83;;;7.30;99.90;;;;;;6181996;22;20086;-95
2022/11/24 17:28:33;;;;;;;12.95;3.90;;;7.30;99.90;;;;;;6215381;23;20315;-95
2022/11/24 17:34:23;;;;;;;14.98;3.60;;;7.30;99.90;;;;;;6215795;23;20028;-95
2022/11/24 17:37:07;;;;;;;11.52;3.38;;;7.30;99.90;;;;;;6165578;23;20016;-94
2022/11/24 17:43:26;;;;;;;11.60;3.50;;;7.20;99.90;;;;;;6214869;23;20021;-95
2022/11/24 17:52:56;;;;;;;16.57;3.90;;;7.10;99.90;;;;;;6215763;23;20074;-93
2022/11/24 17:55:25;;;;;;;12.82;3.40;;;7.10;99.90;;;;;;6189257;23;20016;-94
2022/11/24 17:58:48;;;;;;;;;;;;;;;;;;;;;
2022/11/24 18:05:19;;;;;;;;;;;;;;;;;;;;;
2022/11/24 18:08:23;;;;;;;;;;;;;;;;;;;;;
2022/11/24 18:11:41;;;;;;;;;;;;;;;;;;;;;
2022/11/24 18:14:59;;;;;;;;;;;;;;;;;;;;;
2022/11/24 18:18:09;;;;;;;;;;;;;;;;;;;;;
2022/11/24 18:39:41;;;;;;;;;;;;;;;;;;;;;
2022/11/24 18:43:06;;;;;;;;;;;;;;;;;;;;;
2022/11/24 19:09:44;;;;;;;;;;;;;;;;;;;;;
2022/11/24 19:12:44;;;;;;;;;;;;;;;;;;;;;
2022/11/24 19:15:59;;;;;;;;;;;;;;;;;;;;;
2022/11/24 19:18:54;;;;;;;;;;;;;;;;;;;;;
2022/11/24 19:21:36;;;;;;;;;;;;;;;;;;;;;
2022/11/24 19:24:51;;;;;;;;;;;;;;;;;;;;;
2022/11/24 19:28:12;;;;;;;;;;;;;;;;;;;;;
2022/11/24 19:34:14;;;;;;;;;;;;;;;;;;;;;
2022/11/24 19:37:20;;;;;;;;;;;;;;;;;;;;;
2022/11/24 19:40:36;;;;;;;;;;;;;;;;;;;;;
2022/11/24 19:43:53;;;;;;;;;;;;;;;;;;;;;
2022/11/24 19:46:50;;;;;;;;;;;;;;;;;;;;;
2022/11/24 19:52:54;;;;;;;;;;;;;;;;;;;;;
2022/11/24 19:59:49;;;;;;;;;;;;;;;;;;;;;
2022/11/24 20:02:51;;;;;;;;;;;;;;;;;;;;;
2022/11/24 20:06:08;;;;;;;;;;;;;;;;;;;;;
2022/11/24 20:08:59;;;;;;;;;;;;;;;;;;;;;
2022/11/24 20:11:54;;;;;;;14.30;3.08;;;6.60;99.90;;;;;;6184541;23;20029;-95
2022/11/24 20:14:58;;;;;;;;;;;;;;;;;;;;;
2022/11/24 20:18:16;;;;;;;;;;;;;;;;;;;;;
2022/11/24 20:21:33;;;;;;;;;;;;;;;;;;;;;
2022/11/24 20:28:00;;;;;;;;;;;;;;;;;;;;;
2022/11/24 20:31:18;;;;;;;;;;;;;;;;;;;;;
2022/11/24 20:34:16;;;;;;;;;;;;;;;;;;;;;
2022/11/24 20:40:29;;;;;;;;;;;;;;;;;;;;;
2022/11/24 20:47:06;;;;;;;;;;;;;;;;;;;;;
2022/11/24 20:49:55;;;;;;;11.98;3.00;;;6.40;99.90;;;;;;6158928;23;20095;-94
2022/11/24 20:52:28;;;;;;;17.13;3.47;;;6.60;99.90;;;;;;6117581;23;20021;-93
2022/11/24 20:55:04;;;;;;;;;;;;;;;;;;;;;
2022/11/24 20:58:10;;;;;;;;;;;;;;;;;;;;;
2022/11/24 21:04:20;;;;;;;10.50;3.13;;;6.60;99.90;;;;;;6188140;23;20012;-90
2022/11/24 21:07:12;;;;;;;13.48;3.08;;;6.60;99.90;;;;;;6136100;23;20036;-93
2022/11/24 21:10:07;;;;;;;;;;;6.70;99.90;;;;;;6113128;23;20103;-94
2022/11/24 21:12:35;;;;;;;11.85;3.55;;;6.60;99.90;;;;;;6135846;23;20330;-93
2022/11/24 21:15:22;;;;;;;13.98;2.80;;;6.70;99.90;;;;;;6134985;23;20017;-95
2022/11/24 21:17:50;;;;;;;6.65;2.70;;;6.60;99.90;;;;;;6110950;23;20363;-96
2022/11/24 21:20:16;;;;;;;10.45;2.72;;;6.70;99.90;;;;;;6110961;23;20021;-95
2022/11/24 21:22:44;;;;;;;12.70;2.90;;;6.70;99.90;;;;;;6111635;23;20017;-94
2022/11/24 21:25:11;;;;;;;18.38;3.50;;;6.70;99.90;;;;;;6111715;23;20028;-94
2022/11/24 21:27:44;;;;;;;15.90;3.33;;;6.70;99.90;;;;;;6137704;23;20013;-92
2022/11/24 21:30:12;;;;;;;12.27;2.60;;;6.80;99.90;;;;;;6111510;23;20100;-94
2022/11/24 21:32:39;;;;;;;13.45;3.25;;;6.70;99.90;;;;;;6111143;23;20020;-94
2022/11/24 21:35:42;;;;;;;9.68;2.28;;;6.70;99.90;;;;;;6110566;23;20017;-95
2022/11/24 21:38:18;;;;;;;8.82;2.70;;;6.80;99.90;;;;;;6135698;23;20028;-93
2022/11/24 21:40:46;;;;;;;13.93;3.13;;;6.70;99.90;;;;;;6110931;23;20111;-93
2022/11/24 21:43:49;;;;;;;15.38;3.33;;;6.70;99.90;;;;;;6111907;23;20028;-93
2022/11/24 21:49:37;;;;;;;11.48;2.20;;;6.70;99.90;;;;;;6159918;23;20021;-93
2022/11/24 21:52:22;;;;;;;12.82;3.08;;;6.70;99.90;;;;;;6110621;23;20021;-94
2022/11/24 21:58:30;;;;;;;12.30;2.60;;;6.70;99.90;;;;;;6160097;23;20032;-92
2022/11/24 22:01:17;;;;;;;11.00;2.60;;;6.70;99.90;;;;;;6135503;23;20017;-92
2022/11/24 22:11:44;;;;;;;15.90;3.25;;;6.70;99.90;;;;;;6185943;23;20075;-94
2022/11/24 22:14:37;;;;;;;14.60;2.58;;;6.70;99.90;;;;;;6135500;23;20017;-93
2022/11/24 22:28:38;;;;;;;15.68;2.65;;;6.60;99.90;;;;;;6186302;23;20020;-93
2022/11/24 22:31:42;;;;;;;18.67;2.95;;;6.60;99.90;;;;;;6135773;23;20021;-95
2022/11/24 22:34:45;;;;;;;7.47;2.22;;;6.60;99.90;;;;;;6135582;23;20017;-92
2022/11/24 22:37:31;;;;;;;8.85;2.55;;;6.60;99.90;;;;;;6134847;23;20059;-94
2022/11/24 22:50:49;;;;;;;9.00;2.33;;;6.60;99.90;;;;;;6159974;23;20059;-95
2022/11/24 22:53:53;;;;;;;10.35;2.00;;;6.60;99.90;;;;;;6135212;23;20017;-93
2022/11/24 23:04:07;;;;;;;9.23;2.00;;;6.70;99.90;;;;;;6185478;23;20478;-92
2022/11/24 23:06:52;;;;;;;8.80;2.00;;;6.90;99.90;;;;;;6134599;23;20421;-93
2022/11/24 23:09:37;;;;;;;15.07;2.40;;;6.90;99.90;;;;;;6109598;23;20047;-93
2022/11/24 23:16:39;;;;;;;8.30;1.95;;;6.50;99.90;;;;;;6185997;23;20071;-92
2022/11/24 23:22:48;;;;;;;11.50;2.40;;;7.10;99.90;;;;;;6185168;23;20336;-93
2022/11/24 23:32:54;;;;;;;10.45;2.22;;;7.20;99.90;;;;;;6185599;23;20071;-93
2022/11/24 23:35:22;;;;;;;9.07;2.00;;;7.20;99.90;;;;;;6110513;23;20084;-95
2022/11/24 23:37:49;;;;;;;;;;;7.20;99.90;;;;;;6111153;23;20123;-92
2022/11/24 23:43:41;;;;;;;9.55;2.58;;;7.10;99.90;;;;;;6175667;23;20025;-92
2022/11/24 23:46:46;;;;;;;16.08;2.60;;;7.10;99.90;;;;;;6155475;23;20097;-93
2022/11/24 23:49:31;;;;;;;8.40;2.13;;;7.10;99.90;;;;;;6156910;23;20024;-92
2022/11/24 23:51:58;;;;;;;10.43;2.10;;;7.10;99.90;;;;;;6129269;23;20073;-93
2022/11/24 23:58:23;;;;;;;19.98;2.83;;;7.00;99.90;;;;;;6187419;23;20343;-93
